Skip Navigation Links
NOAA logo - Click to go to the NOAA homepage
NOAA's National Weather Service
Alaska Aviation Weather Unit
  NWS logo - Click to go to the NWS homepage
Left Navbar Graphic     17 AKDT = 01 GMT

   
NOAA is celebrating 200 years of science, service, and stewardship. Visit the NOAA 200th celebration Web site to learn more.
USA.gov is the U.S. Government's official Web portal to all Federal, state and local government Web resources and services.
Facebook
NWS on Facebook

Important Change Regarding the AAWU Web Presence

 

Over the last several months, the AAWU has been working to navigate its webpages to a nationally supported server. Security, as well as other needs, have necessitated the change.  In the process, we have made an effort to enhance the functionality of our website, as well as some of our products. As of June 27, 2017, aawu.arh.noaa.gov will be discontinued. The new AAWU web address is weather.gov/aawu. It is now live and will run in-parallel with the old site until it is discontinued. Please send any feedback or questions regarding the new webpages to nws.ar.aawu.webauthors@noaa.gov.  Thank you for your patience during this time of transition.
AAWU Home :: Display TAF Add Bookmark
METAR PAJZ 251956Z AUTO 17008KT 7SM CLR 17/05 A3003 RMK AO2 SLP176
     T01720050 $=

METAR PAJZ 252056Z AUTO 17006KT 7SM FEW036 17/08 A3001 RMK AO2
 SLP170 T01720078 57018 $=

METAR PAJZ 252156Z AUTO 16014KT 7SM FEW042 19/08 A2999 RMK AO2 SLP164
     T01940078 $=

METAR PAJZ 252256Z AUTO 19014G22KT 7SM BKN046 18/07 A2997 RMK AO2 SLP156
     T01830072 $=

METAR PAJZ 252356Z AUTO 20012G18KT 7SM FEW046 19/07 A2996 RMK AO2 SLP152
     T01940067 10194 20117 56019 $=


NOAA's National Weather Service
Alaska Aviation Weather Unit
6930 Sand Lake Road
Anchorage, AK 99502-1845
Disclaimer
Credits
Glossary
Privacy Policy
About Us
Career Opportunities
Contact AAWU Internet Services Site last modified: April, 17th 2012